KPUW/PUW METAR and TAF weather

Enter ICAO airport designator
Station Type Date Time Source
KPUW METAR 2021/07/29 16:53 UTC NOAA

KPUW 291653Z AUTO VRB05KT 9SM CLR 29/07 A3014 RMK AO2 SLP184 T02890067


Station Type Date Time Source
KPUW Decoded METAR 2021/07/29 16:53 UTC NOAA

PULLMAN/MOSCOW RGNL AIRPORT , WA, United States (KPUW) 46-45N 117-07W 773M
Jul 29, 2021 - 12:53 PM EDT / 2021.07.29 1653 UTC
Wind: Variable at 6 MPH (5 KT):0
Visibility: 9 mile(s):0
Sky conditions: clear
Temperature: 84.0 F (28.9 C)
Dew Point: 44.1 F (6.7 C)
Relative Humidity: 24%
Pressure (altimeter): 30.14 in. Hg (1020 hPa)
ob: KPUW 291653Z AUTO VRB05KT 9SM CLR 29/07 A3014 RMK AO2 SLP184 T02890067
cycle: 17

Station Type Date Time Source
KPUW TAF 2021/07/29 18:22 UTC NOAA

TAF KPUW 291720Z 2918/3018 23005KT P6SM SCT250
FM300300 VRB03KT P6SM SCT250
FM301600 10007KT P6SM SKC

Example: see airport list